Berta — V2BQ6 — position and weather

sailwx.info

Track history (hours):
 
Tides and Currents Weather Stations Pressure Air Temp Water Temp Dewpoint Dewpoint Depression Visibility Wind Speed Wind Dir Waves Ship Positions

Berta

Last reported at 2016-Jul-23 12:33 UTC. Time now 2016-Jul-23 13:12 UTC.
Position N 59°19' E 005°19'.

Length 118 m; draft 6 m.

Type: Cargo ship. MMSI: 304586000.

Date/timePositionNaut miles runAvg speedWind from/ knotsBaromVisibWave heightAir tempDewpointWater temp
2016-Jul-23 12:33N 59°19' E 005°19'5 4.7
2016-Jul-23 11:23N 59°25' E 005°16'5 2.5
2016-Jul-23 09:28N 59°20' E 005°19'1314.3
2016-Jul-23 08:33N 59°07' E 005°25'7 6.9
2016-Jul-23 07:33N 59°01' E 005°20'1010.4
2016-Jul-23 06:33N 58°51' E 005°23'2512.5
2016-Jul-23 04:33N 58°28' E 005°43'9 8.7
2016-Jul-23 03:33N 58°26' E 005°59'1 0.8
2016-Jul-23 02:33N 58°26' E 005°59'0 0.0
2016-Jul-23 01:33N 58°26' E 005°59'0 0.0
2016-Jul-23 00:33N 58°26' E 005°59'0 0.0
2016-Jul-22 23:33N 58°26' E 005°59'0 0.0
2016-Jul-22 22:33N 58°26' E 005°59'0 0.0
2016-Jul-22 21:33N 58°26' E 005°59'0 0.0
2016-Jul-22 20:33N 58°26' E 005°59'0 0.0
2016-Jul-22 19:33N 58°26' E 005°59'0 0.0
2016-Jul-22 18:33N 58°26' E 005°59'0 0.0
2016-Jul-22 17:33N 58°26' E 005°59'0 0.0
2016-Jul-22 16:33N 58°26' E 005°59'0 0.0
2016-Jul-22 15:33N 58°26' E 005°59'0 0.0
2016-Jul-22 14:33N 58°26' E 005°59'0 0.0
2016-Jul-22 13:33N 58°26' E 005°59'0 0.0
2016-Jul-22 12:33N 58°26' E 005°59'0 0.0
2016-Jul-22 11:33N 58°26' E 005°59'0 0.0
2016-Jul-22 10:33N 58°26' E 005°59'0 0.0
2016-Jul-22 09:33N 58°26' E 005°59'0 0.0
2016-Jul-22 08:33N 58°26' E 005°59'0 0.0
2016-Jul-22 07:33N 58°26' E 005°59'3 1.5
2016-Jul-22 05:33N 58°23' E 005°60'1010.0
2016-Jul-22 04:33N 58°13' E 005°59'1010.1
2016-Jul-22 03:32N 58°03' E 005°59'9 9.5
2016-Jul-22 02:33N 57°54' E 006°00'11 9.0
2016-Jul-22 01:21N 57°43' E 005°57'137 6.2
2016-Jul-21 03:19N 55°30' E 006°55'1013.3
2016-Jul-21 02:33N 55°20' E 006°57'1313.5
2016-Jul-21 01:34N 55°06' E 007°02'1413.5
2016-Jul-21 00:33N 54°53' E 007°09'1313.4
2016-Jul-20 23:33N 54°41' E 007°16'1313.0
2016-Jul-20 22:33N 54°28' E 007°24'1312.8
2016-Jul-20 21:33N 54°17' E 007°33'1312.9
2016-Jul-20 20:33N 54°07' E 007°48'1313.1
2016-Jul-20 19:33N 54°01' E 008°08'1414.1
2016-Jul-20 18:33N 53°58' E 008°31'1615.7
2016-Jul-20 17:33N 53°51' E 008°54'8 8.3
2016-Jul-20 16:33N 53°53' E 009°08'0 0.0
2016-Jul-20 15:33N 53°53' E 009°08'0 0.1
2016-Jul-20 14:32N 53°53' E 009°08'0 0.1
2016-Jul-20 13:24N 53°53' E 009°09'0 0.0
2016-Jul-20 12:33N 53°53' E 009°09'0 0.0
2016-Jul-20 11:29N 53°53' E 009°09'0 0.0
2016-Jul-20 10:33N 53°53' E 009°09'0 0.1
2016-Jul-20 09:33N 53°53' E 009°09'0 0.2
2016-Jul-20 08:32N 53°53' E 009°08'0 0.0
2016-Jul-20 07:33N 53°53' E 009°08'0 0.0
2016-Jul-20 06:32N 53°53' E 009°08'0 0.0
2016-Jul-20 05:33N 53°53' E 009°08'0 0.0
2016-Jul-20 04:32N 53°53' E 009°08'0 0.0
2016-Jul-20 03:33N 53°53' E 009°08'0 0.1
2016-Jul-20 02:33N 53°53' E 009°09'0 0.1
2016-Jul-20 01:32N 53°53' E 009°09'0 0.0
2016-Jul-20 00:30N 53°53' E 009°09'0 0.0
2016-Jul-19 23:33N 53°53' E 009°09'0 0.0
2016-Jul-19 22:32N 53°53' E 009°09'0 0.0
2016-Jul-19 21:33N 53°53' E 009°09'0 0.1
2016-Jul-19 20:32N 53°53' E 009°08'0 0.0
2016-Jul-19 19:33N 53°53' E 009°08'0 0.0
2016-Jul-19 18:32N 53°53' E 009°08'0 0.0
2016-Jul-19 17:33N 53°53' E 009°08'0 0.0
2016-Jul-19 16:33N 53°53' E 009°08'0 0.0
2016-Jul-19 15:32N 53°53' E 009°08'0 0.2
2016-Jul-19 14:33N 53°53' E 009°09'0 0.1
2016-Jul-19 13:32N 53°53' E 009°09'0 0.0
2016-Jul-19 12:29N 53°53' E 009°09'0 0.0
2016-Jul-19 11:29N 53°53' E 009°09'0 0.0
2016-Jul-19 10:33N 53°53' E 009°09'0 0.0
2016-Jul-19 09:33N 53°53' E 009°09'0 0.1
2016-Jul-19 08:32N 53°53' E 009°09'0 0.2
2016-Jul-19 07:33N 53°53' E 009°08'0 0.0
2016-Jul-19 04:32N 53°53' E 009°08'0 0.0
2016-Jul-19 03:32N 53°53' E 009°08'0 0.0
2016-Jul-19 02:34N 53°53' E 009°08'0 0.2
2016-Jul-19 01:32N 53°53' E 009°09'0 0.0
2016-Jul-19 00:32N 53°53' E 009°09'0 0.0
2016-Jul-18 23:32N 53°53' E 009°09'0 0.0
2016-Jul-18 22:32N 53°53' E 009°09'0 0.0
2016-Jul-18 21:32N 53°53' E 009°09'0 0.0
2016-Jul-18 20:32N 53°53' E 009°09'0 0.2
2016-Jul-18 19:32N 53°53' E 009°08'0 0.0
2016-Jul-18 18:32N 53°53' E 009°08'0 0.0
2016-Jul-18 17:32N 53°53' E 009°08'0 0.0
2016-Jul-18 16:32N 53°53' E 009°08'0 0.0
2016-Jul-18 15:32N 53°53' E 009°08'0 0.0
2016-Jul-18 14:32N 53°53' E 009°08'0 0.2
2016-Jul-18 13:32N 53°53' E 009°09'0 0.0
2016-Jul-18 12:32N 53°53' E 009°09'0 0.0
2016-Jul-18 11:32N 53°53' E 009°09'0 0.0
2016-Jul-18 10:32N 53°53' E 009°09'0 0.0
2016-Jul-18 09:29N 53°53' E 009°09'0 0.0
2016-Jul-18 08:32N 53°53' E 009°09'0 0.1
2016-Jul-18 07:32N 53°53' E 009°09'0 0.1
2016-Jul-18 06:32N 53°53' E 009°08'0 0.0
2016-Jul-18 05:32N 53°53' E 009°08'0 0.0
2016-Jul-18 04:32N 53°53' E 009°08'0 0.0
2016-Jul-18 03:32N 53°53' E 009°08'0 0.0
2016-Jul-18 02:32N 53°53' E 009°08'0 0.2
2016-Jul-18 01:32N 53°53' E 009°09'0 0.0
2016-Jul-18 00:32N 53°53' E 009°09'0 0.0
2016-Jul-17 23:32N 53°53' E 009°09'0 0.0
2016-Jul-17 22:32N 53°53' E 009°09'0 0.0
2016-Jul-17 21:32N 53°53' E 009°09'0 0.0
2016-Jul-17 20:32N 53°53' E 009°09'0 0.0
2016-Jul-17 19:32N 53°53' E 009°09'0 0.2
2016-Jul-17 18:32N 53°53' E 009°08'0 0.0
2016-Jul-17 17:32N 53°53' E 009°08'0 0.0
2016-Jul-17 16:32N 53°53' E 009°08'0 0.0
2016-Jul-17 15:32N 53°53' E 009°08'0 0.0
2016-Jul-17 14:32N 53°53' E 009°08'0 0.0
2016-Jul-17 13:32N 53°53' E 009°08'0 0.2
2016-Jul-17 12:32N 53°53' E 009°09'0 0.0
2016-Jul-17 11:32N 53°53' E 009°09'0 0.0
2016-Jul-17 10:32N 53°53' E 009°09'0 0.0
2016-Jul-17 09:32N 53°53' E 009°09'0 0.0
2016-Jul-17 08:32N 53°53' E 009°09'0 0.0
2016-Jul-17 07:32N 53°53' E 009°09'0 0.2
2016-Jul-17 06:32N 53°53' E 009°08'0 0.0
2016-Jul-17 04:32N 53°53' E 009°08'0 0.0
2016-Jul-17 03:32N 53°53' E 009°08'0 0.0
2016-Jul-17 02:32N 53°53' E 009°08'0 0.0
2016-Jul-17 01:32N 53°53' E 009°08'0 0.1
2016-Jul-17 00:32N 53°53' E 009°09'0 0.1
2016-Jul-16 23:29N 53°53' E 009°09'0 0.0
2016-Jul-16 22:29N 53°53' E 009°09'0 0.0
2016-Jul-16 21:32N 53°53' E 009°09'0 0.0
2016-Jul-16 20:32N 53°53' E 009°09'0 0.0
2016-Jul-16 19:32N 53°53' E 009°09'0 0.0
2016-Jul-16 18:32N 53°53' E 009°09'0 0.2
2016-Jul-16 17:32N 53°53' E 009°08'0 0.0
2016-Jul-16 16:32N 53°53' E 009°08'0 0.0
2016-Jul-16 15:32N 53°53' E 009°08'0 0.1
2016-Jul-16 14:32N 53°52' E 009°08'0 0.0
2016-Jul-16 13:32N 53°53' E 009°08'0 0.1
2016-Jul-16 12:32N 53°53' E 009°08'0 0.1
2016-Jul-16 11:32N 53°53' E 009°09'0 0.0
2016-Jul-16 10:32N 53°53' E 009°09'0 0.0
2016-Jul-16 09:26N 53°53' E 009°09'0 0.0
2016-Jul-16 08:23N 53°53' E 009°09'0 0.0
2016-Jul-16 07:29N 53°53' E 009°09'0 0.0
2016-Jul-16 06:26N 53°53' E 009°09'0 0.1
2016-Jul-16 04:32N 53°53' E 009°08'0 0.0
2016-Jul-16 03:32N 53°53' E 009°08'0 0.0
2016-Jul-16 02:32N 53°53' E 009°08'0 0.0
2016-Jul-16 01:32N 53°53' E 009°08'0 0.0
2016-Jul-16 00:32N 53°53' E 009°08'0 0.1
2016-Jul-15 23:32N 53°53' E 009°08'0 0.2
2016-Jul-15 22:32N 53°53' E 009°09'0 0.0
2016-Jul-15 21:29N 53°53' E 009°09'0 0.0
2016-Jul-15 20:32N 53°53' E 009°09'0 0.0
2016-Jul-15 19:32N 53°53' E 009°09'0 0.0
2016-Jul-15 18:32N 53°53' E 009°09'0 0.0
2016-Jul-15 17:32N 53°53' E 009°09'0 0.2
2016-Jul-15 16:32N 53°53' E 009°08'0 0.0
2016-Jul-15 15:32N 53°53' E 009°08'0 0.0
2016-Jul-15 14:32N 53°53' E 009°08'0 0.0
2016-Jul-15 13:32N 53°53' E 009°08'0 0.0
2016-Jul-15 12:32N 53°53' E 009°08'0 0.0
2016-Jul-15 11:32N 53°53' E 009°08'0 0.2
2016-Jul-15 10:32N 53°53' E 009°09'0 0.0
2016-Jul-15 09:32N 53°53' E 009°09'0 0.0
2016-Jul-15 08:32N 53°53' E 009°09'0 0.0
2016-Jul-15 07:32N 53°53' E 009°09'0 0.0
2016-Jul-15 06:32N 53°53' E 009°09'0 0.0
2016-Jul-15 05:32N 53°53' E 009°09'0 0.1
2016-Jul-15 04:29N 53°52' E 009°09'0 0.1
2016-Jul-15 03:26N 53°53' E 009°08'0 0.0
2016-Jul-15 02:32N 53°53' E 009°08'0 0.0
2016-Jul-15 01:32N 53°53' E 009°08'0 0.0
2016-Jul-15 00:32N 53°53' E 009°08'0 0.0
2016-Jul-14 23:32N 53°53' E 009°08'0 0.1
2016-Jul-14 22:32N 53°52' E 009°08'0 0.1
2016-Jul-14 21:32N 53°53' E 009°09'0 0.0
2016-Jul-14 20:32N 53°53' E 009°09'0 0.0
2016-Jul-14 19:32N 53°53' E 009°09'0 0.0
2016-Jul-14 18:32N 53°53' E 009°09'0 0.0
2016-Jul-14 17:32N 53°53' E 009°09'0 0.0
2016-Jul-14 16:32N 53°53' E 009°09'0 0.2
2016-Jul-14 15:32N 53°53' E 009°08'0 0.0
2016-Jul-14 14:32N 53°53' E 009°08'0 0.0
2016-Jul-14 13:32N 53°53' E 009°08'0 0.0
2016-Jul-14 12:32N 53°53' E 009°08'0 0.0
2016-Jul-14 11:32N 53°53' E 009°08'0 0.1
2016-Jul-14 10:32N 53°52' E 009°08'0 0.1
2016-Jul-14 09:32N 53°53' E 009°09'0 0.0
2016-Jul-14 08:32N 53°53' E 009°09'0 0.0
2016-Jul-14 07:32N 53°53' E 009°09'0 0.0
2016-Jul-14 06:32N 53°53' E 009°09'0 0.0
2016-Jul-14 05:32N 53°53' E 009°09'0 0.0
2016-Jul-14 04:32N 53°53' E 009°09'0 0.1
2016-Jul-14 03:32N 53°52' E 009°09'0 0.1
2016-Jul-14 02:29N 53°53' E 009°08'0 0.0
2016-Jul-14 01:32N 53°53' E 009°08'0 0.0
2016-Jul-14 00:32N 53°53' E 009°08'0 0.0
2016-Jul-13 23:32N 53°53' E 009°08'0 0.0
2016-Jul-13 22:32N 53°53' E 009°08'0 0.0
2016-Jul-13 21:32N 53°53' E 009°08'0 0.2
2016-Jul-13 20:32N 53°53' E 009°09'0 0.0
2016-Jul-13 19:32N 53°53' E 009°09'0 0.0
2016-Jul-13 18:32N 53°53' E 009°09'0 0.0
2016-Jul-13 17:32N 53°53' E 009°09'0 0.0
2016-Jul-13 16:32N 53°53' E 009°09'0 0.0
2016-Jul-13 15:32N 53°53' E 009°09'0 0.1
2016-Jul-13 14:29N 53°53' E 009°08'0 0.0
2016-Jul-13 13:32N 53°53' E 009°08'  
Track history (hours):
 
Tides and Currents Weather Stations Pressure Air Temp Water Temp Dewpoint Dewpoint Depression Visibility Wind Speed Wind Dir Waves Ship Positions

Berta

Last reported at 2016-Jul-23 12:33 UTC. Time now 2016-Jul-23 13:12 UTC.
Position N 59°19' E 005°19'.

Length 118 m; draft 6 m.

Type: Cargo ship. MMSI: 304586000.

Date/timePositionNaut miles runAvg speedWind from/ knotsBaromVisibWave heightAir tempDewpointWater temp
2016-Jul-23 12:33N 59°19' E 005°19'5 4.7
2016-Jul-23 11:23N 59°25' E 005°16'5 2.5
2016-Jul-23 09:28N 59°20' E 005°19'1314.3
2016-Jul-23 08:33N 59°07' E 005°25'7 6.9
2016-Jul-23 07:33N 59°01' E 005°20'1010.4
2016-Jul-23 06:33N 58°51' E 005°23'2512.5
2016-Jul-23 04:33N 58°28' E 005°43'9 8.7
2016-Jul-23 03:33N 58°26' E 005°59'1 0.8
2016-Jul-23 02:33N 58°26' E 005°59'0 0.0
2016-Jul-23 01:33N 58°26' E 005°59'0 0.0
2016-Jul-23 00:33N 58°26' E 005°59'0 0.0
2016-Jul-22 23:33N 58°26' E 005°59'0 0.0
2016-Jul-22 22:33N 58°26' E 005°59'0 0.0
2016-Jul-22 21:33N 58°26' E 005°59'0 0.0
2016-Jul-22 20:33N 58°26' E 005°59'0 0.0
2016-Jul-22 19:33N 58°26' E 005°59'0 0.0
2016-Jul-22 18:33N 58°26' E 005°59'0 0.0
2016-Jul-22 17:33N 58°26' E 005°59'0 0.0
2016-Jul-22 16:33N 58°26' E 005°59'0 0.0
2016-Jul-22 15:33N 58°26' E 005°59'0 0.0
2016-Jul-22 14:33N 58°26' E 005°59'0 0.0
2016-Jul-22 13:33N 58°26' E 005°59'0 0.0
2016-Jul-22 12:33N 58°26' E 005°59'0 0.0
2016-Jul-22 11:33N 58°26' E 005°59'0 0.0
2016-Jul-22 10:33N 58°26' E 005°59'0 0.0
2016-Jul-22 09:33N 58°26' E 005°59'0 0.0
2016-Jul-22 08:33N 58°26' E 005°59'0 0.0
2016-Jul-22 07:33N 58°26' E 005°59'3 1.5
2016-Jul-22 05:33N 58°23' E 005°60'1010.0
2016-Jul-22 04:33N 58°13' E 005°59'1010.1
2016-Jul-22 03:32N 58°03' E 005°59'9 9.5
2016-Jul-22 02:33N 57°54' E 006°00'11 9.0
2016-Jul-22 01:21N 57°43' E 005°57'137 6.2
2016-Jul-21 03:19N 55°30' E 006°55'1013.3
2016-Jul-21 02:33N 55°20' E 006°57'1313.5
2016-Jul-21 01:34N 55°06' E 007°02'1413.5
2016-Jul-21 00:33N 54°53' E 007°09'1313.4
2016-Jul-20 23:33N 54°41' E 007°16'1313.0
2016-Jul-20 22:33N 54°28' E 007°24'1312.8
2016-Jul-20 21:33N 54°17' E 007°33'1312.9
2016-Jul-20 20:33N 54°07' E 007°48'1313.1
2016-Jul-20 19:33N 54°01' E 008°08'1414.1
2016-Jul-20 18:33N 53°58' E 008°31'1615.7
2016-Jul-20 17:33N 53°51' E 008°54'8 8.3
2016-Jul-20 16:33N 53°53' E 009°08'0 0.0
2016-Jul-20 15:33N 53°53' E 009°08'0 0.1
2016-Jul-20 14:32N 53°53' E 009°08'0 0.1
2016-Jul-20 13:24N 53°53' E 009°09'0 0.0
2016-Jul-20 12:33N 53°53' E 009°09'0 0.0
2016-Jul-20 11:29N 53°53' E 009°09'0 0.0
2016-Jul-20 10:33N 53°53' E 009°09'0 0.1
2016-Jul-20 09:33N 53°53' E 009°09'0 0.2
2016-Jul-20 08:32N 53°53' E 009°08'0 0.0
2016-Jul-20 07:33N 53°53' E 009°08'0 0.0
2016-Jul-20 06:32N 53°53' E 009°08'0 0.0
2016-Jul-20 05:33N 53°53' E 009°08'0 0.0
2016-Jul-20 04:32N 53°53' E 009°08'0 0.0
2016-Jul-20 03:33N 53°53' E 009°08'0 0.1
2016-Jul-20 02:33N 53°53' E 009°09'0 0.1
2016-Jul-20 01:32N 53°53' E 009°09'0 0.0
2016-Jul-20 00:30N 53°53' E 009°09'0 0.0
2016-Jul-19 23:33N 53°53' E 009°09'0 0.0
2016-Jul-19 22:32N 53°53' E 009°09'0 0.0
2016-Jul-19 21:33N 53°53' E 009°09'0 0.1
2016-Jul-19 20:32N 53°53' E 009°08'0 0.0
2016-Jul-19 19:33N 53°53' E 009°08'0 0.0
2016-Jul-19 18:32N 53°53' E 009°08'0 0.0
2016-Jul-19 17:33N 53°53' E 009°08'0 0.0
2016-Jul-19 16:33N 53°53' E 009°08'0 0.0
2016-Jul-19 15:32N 53°53' E 009°08'0 0.2
2016-Jul-19 14:33N 53°53' E 009°09'0 0.1
2016-Jul-19 13:32N 53°53' E 009°09'0 0.0
2016-Jul-19 12:29N 53°53' E 009°09'0 0.0
2016-Jul-19 11:29N 53°53' E 009°09'0 0.0
2016-Jul-19 10:33N 53°53' E 009°09'0 0.0
2016-Jul-19 09:33N 53°53' E 009°09'0 0.1
2016-Jul-19 08:32N 53°53' E 009°09'0 0.2
2016-Jul-19 07:33N 53°53' E 009°08'0 0.0
2016-Jul-19 04:32N 53°53' E 009°08'0 0.0
2016-Jul-19 03:32N 53°53' E 009°08'0 0.0
2016-Jul-19 02:34N 53°53' E 009°08'0 0.2
2016-Jul-19 01:32N 53°53' E 009°09'0 0.0
2016-Jul-19 00:32N 53°53' E 009°09'0 0.0
2016-Jul-18 23:32N 53°53' E 009°09'0 0.0
2016-Jul-18 22:32N 53°53' E 009°09'0 0.0
2016-Jul-18 21:32N 53°53' E 009°09'0 0.0
2016-Jul-18 20:32N 53°53' E 009°09'0 0.2
2016-Jul-18 19:32N 53°53' E 009°08'0 0.0
2016-Jul-18 18:32N 53°53' E 009°08'0 0.0
2016-Jul-18 17:32N 53°53' E 009°08'0 0.0
2016-Jul-18 16:32N 53°53' E 009°08'0 0.0
2016-Jul-18 15:32N 53°53' E 009°08'0 0.0
2016-Jul-18 14:32N 53°53' E 009°08'0 0.2
2016-Jul-18 13:32N 53°53' E 009°09'0 0.0
2016-Jul-18 12:32N 53°53' E 009°09'0 0.0
2016-Jul-18 11:32N 53°53' E 009°09'0 0.0
2016-Jul-18 10:32N 53°53' E 009°09'0 0.0
2016-Jul-18 09:29N 53°53' E 009°09'0 0.0
2016-Jul-18 08:32N 53°53' E 009°09'0 0.1
2016-Jul-18 07:32N 53°53' E 009°09'0 0.1
2016-Jul-18 06:32N 53°53' E 009°08'0 0.0
2016-Jul-18 05:32N 53°53' E 009°08'0 0.0
2016-Jul-18 04:32N 53°53' E 009°08'0 0.0
2016-Jul-18 03:32N 53°53' E 009°08'0 0.0
2016-Jul-18 02:32N 53°53' E 009°08'0 0.2
2016-Jul-18 01:32N 53°53' E 009°09'0 0.0
2016-Jul-18 00:32N 53°53' E 009°09'0 0.0
2016-Jul-17 23:32N 53°53' E 009°09'0 0.0
2016-Jul-17 22:32N 53°53' E 009°09'0 0.0
2016-Jul-17 21:32N 53°53' E 009°09'0 0.0
2016-Jul-17 20:32N 53°53' E 009°09'0 0.0
2016-Jul-17 19:32N 53°53' E 009°09'0 0.2
2016-Jul-17 18:32N 53°53' E 009°08'0 0.0
2016-Jul-17 17:32N 53°53' E 009°08'0 0.0
2016-Jul-17 16:32N 53°53' E 009°08'0 0.0
2016-Jul-17 15:32N 53°53' E 009°08'0 0.0
2016-Jul-17 14:32N 53°53' E 009°08'0 0.0
2016-Jul-17 13:32N 53°53' E 009°08'0 0.2
2016-Jul-17 12:32N 53°53' E 009°09'0 0.0
2016-Jul-17 11:32N 53°53' E 009°09'0 0.0
2016-Jul-17 10:32N 53°53' E 009°09'0 0.0
2016-Jul-17 09:32N 53°53' E 009°09'0 0.0
2016-Jul-17 08:32N 53°53' E 009°09'0 0.0
2016-Jul-17 07:32N 53°53' E 009°09'0 0.2
2016-Jul-17 06:32N 53°53' E 009°08'0 0.0
2016-Jul-17 04:32N 53°53' E 009°08'0 0.0
2016-Jul-17 03:32N 53°53' E 009°08'0 0.0
2016-Jul-17 02:32N 53°53' E 009°08'0 0.0
2016-Jul-17 01:32N 53°53' E 009°08'0 0.1
2016-Jul-17 00:32N 53°53' E 009°09'0 0.1
2016-Jul-16 23:29N 53°53' E 009°09'0 0.0
2016-Jul-16 22:29N 53°53' E 009°09'0 0.0
2016-Jul-16 21:32N 53°53' E 009°09'0 0.0
2016-Jul-16 20:32N 53°53' E 009°09'0 0.0
2016-Jul-16 19:32N 53°53' E 009°09'0 0.0
2016-Jul-16 18:32N 53°53' E 009°09'0 0.2
2016-Jul-16 17:32N 53°53' E 009°08'0 0.0
2016-Jul-16 16:32N 53°53' E 009°08'0 0.0
2016-Jul-16 15:32N 53°53' E 009°08'0 0.1
2016-Jul-16 14:32N 53°52' E 009°08'0 0.0
2016-Jul-16 13:32N 53°53' E 009°08'0 0.1
2016-Jul-16 12:32N 53°53' E 009°08'0 0.1
2016-Jul-16 11:32N 53°53' E 009°09'0 0.0
2016-Jul-16 10:32N 53°53' E 009°09'0 0.0
2016-Jul-16 09:26N 53°53' E 009°09'0 0.0
2016-Jul-16 08:23N 53°53' E 009°09'0 0.0
2016-Jul-16 07:29N 53°53' E 009°09'0 0.0
2016-Jul-16 06:26N 53°53' E 009°09'0 0.1
2016-Jul-16 04:32N 53°53' E 009°08'0 0.0
2016-Jul-16 03:32N 53°53' E 009°08'0 0.0
2016-Jul-16 02:32N 53°53' E 009°08'0 0.0
2016-Jul-16 01:32N 53°53' E 009°08'0 0.0
2016-Jul-16 00:32N 53°53' E 009°08'0 0.1
2016-Jul-15 23:32N 53°53' E 009°08'0 0.2
2016-Jul-15 22:32N 53°53' E 009°09'0 0.0
2016-Jul-15 21:29N 53°53' E 009°09'0 0.0
2016-Jul-15 20:32N 53°53' E 009°09'0 0.0
2016-Jul-15 19:32N 53°53' E 009°09'0 0.0
2016-Jul-15 18:32N 53°53' E 009°09'0 0.0
2016-Jul-15 17:32N 53°53' E 009°09'0 0.2
2016-Jul-15 16:32N 53°53' E 009°08'0 0.0
2016-Jul-15 15:32N 53°53' E 009°08'0 0.0
2016-Jul-15 14:32N 53°53' E 009°08'0 0.0
2016-Jul-15 13:32N 53°53' E 009°08'0 0.0
2016-Jul-15 12:32N 53°53' E 009°08'0 0.0
2016-Jul-15 11:32N 53°53' E 009°08'0 0.2
2016-Jul-15 10:32N 53°53' E 009°09'0 0.0
2016-Jul-15 09:32N 53°53' E 009°09'0 0.0
2016-Jul-15 08:32N 53°53' E 009°09'0 0.0
2016-Jul-15 07:32N 53°53' E 009°09'0 0.0
2016-Jul-15 06:32N 53°53' E 009°09'0 0.0
2016-Jul-15 05:32N 53°53' E 009°09'0 0.1
2016-Jul-15 04:29N 53°52' E 009°09'0 0.1
2016-Jul-15 03:26N 53°53' E 009°08'0 0.0
2016-Jul-15 02:32N 53°53' E 009°08'0 0.0
2016-Jul-15 01:32N 53°53' E 009°08'0 0.0
2016-Jul-15 00:32N 53°53' E 009°08'0 0.0
2016-Jul-14 23:32N 53°53' E 009°08'0 0.1
2016-Jul-14 22:32N 53°52' E 009°08'0 0.1
2016-Jul-14 21:32N 53°53' E 009°09'0 0.0
2016-Jul-14 20:32N 53°53' E 009°09'0 0.0
2016-Jul-14 19:32N 53°53' E 009°09'0 0.0
2016-Jul-14 18:32N 53°53' E 009°09'0 0.0
2016-Jul-14 17:32N 53°53' E 009°09'0 0.0
2016-Jul-14 16:32N 53°53' E 009°09'0 0.2
2016-Jul-14 15:32N 53°53' E 009°08'0 0.0
2016-Jul-14 14:32N 53°53' E 009°08'0 0.0
2016-Jul-14 13:32N 53°53' E 009°08'0 0.0
2016-Jul-14 12:32N 53°53' E 009°08'0 0.0
2016-Jul-14 11:32N 53°53' E 009°08'0 0.1
2016-Jul-14 10:32N 53°52' E 009°08'0 0.1
2016-Jul-14 09:32N 53°53' E 009°09'0 0.0
2016-Jul-14 08:32N 53°53' E 009°09'0 0.0
2016-Jul-14 07:32N 53°53' E 009°09'0 0.0
2016-Jul-14 06:32N 53°53' E 009°09'0 0.0
2016-Jul-14 05:32N 53°53' E 009°09'0 0.0
2016-Jul-14 04:32N 53°53' E 009°09'0 0.1
2016-Jul-14 03:32N 53°52' E 009°09'0 0.1
2016-Jul-14 02:29N 53°53' E 009°08'0 0.0
2016-Jul-14 01:32N 53°53' E 009°08'0 0.0
2016-Jul-14 00:32N 53°53' E 009°08'0 0.0
2016-Jul-13 23:32N 53°53' E 009°08'0 0.0
2016-Jul-13 22:32N 53°53' E 009°08'0 0.0
2016-Jul-13 21:32N 53°53' E 009°08'0 0.2
2016-Jul-13 20:32N 53°53' E 009°09'0 0.0
2016-Jul-13 19:32N 53°53' E 009°09'0 0.0
2016-Jul-13 18:32N 53°53' E 009°09'0 0.0
2016-Jul-13 17:32N 53°53' E 009°09'0 0.0
2016-Jul-13 16:32N 53°53' E 009°09'0 0.0
2016-Jul-13 15:32N 53°53' E 009°09'0 0.1
2016-Jul-13 14:29N 53°53' E 009°08'0 0.0
2016-Jul-13 13:32N 53°53' E 009°08'  

Dump ship's entire track history